sensor_id;sensor_type;location;lat;lon;timestamp;pressure;altitude;pressure_sealevel;temperature;humidity
77325;BME280;66387;53.440;10.390;2023-08-24T12:49:34;100808.66;;;29.98;43.03
77325;BME280;66387;53.440;10.390;2023-08-24T12:51:59;100812.53;;;29.65;43.19
77325;BME280;66387;53.440;10.390;2023-08-24T12:54:24;100795.19;;;29.50;43.13
77325;BME280;66387;53.440;10.390;2023-08-24T12:56:50;100782.91;;;30.26;42.07
77325;BME280;66387;53.440;10.390;2023-08-24T12:59:15;100772.28;;;30.53;41.76
77325;BME280;66387;53.440;10.390;2023-08-24T13:01:40;100771.19;;;30.46;40.56
77325;BME280;66387;53.440;10.390;2023-08-24T13:04:05;100750.34;;;30.11;41.41
77325;BME280;66387;53.440;10.390;2023-08-24T13:06:32;100757.09;;;30.06;42.88
77325;BME280;66387;53.440;10.390;2023-08-24T13:08:57;100752.03;;;30.03;42.66
77325;BME280;66387;53.440;10.390;2023-08-24T13:11:23;100738.88;;;29.81;43.14
77325;BME280;66387;53.440;10.390;2023-08-24T13:13:48;100735.72;;;29.37;44.37
77325;BME280;66387;53.440;10.390;2023-08-24T13:16:14;100738.69;;;29.34;43.93
77325;BME280;66387;53.440;10.390;2023-08-24T13:18:39;100741.53;;;29.42;44.39
77325;BME280;66387;53.440;10.390;2023-08-24T13:21:05;100732.50;;;29.34;45.07
77325;BME280;66387;53.440;10.390;2023-08-24T13:23:30;100730.75;;;29.92;45.80
77325;BME280;66387;53.440;10.390;2023-08-24T13:25:57;100730.47;;;29.95;43.42
77325;BME280;66387;53.440;10.390;2023-08-24T13:28:23;100723.56;;;29.83;42.62
77325;BME280;66387;53.440;10.390;2023-08-24T13:30:48;100723.84;;;29.99;42.81
77325;BME280;66387;53.440;10.390;2023-08-24T13:33:13;100723.84;;;30.08;42.61
77325;BME280;66387;53.440;10.390;2023-08-24T13:35:40;100720.47;;;30.06;42.37
77325;BME280;66387;53.440;10.390;2023-08-24T13:38:05;100724.25;;;29.16;44.11
77325;BME280;66387;53.440;10.390;2023-08-24T13:40:30;100723.94;;;29.40;45.33
77325;BME280;66387;53.440;10.390;2023-08-24T13:42:56;100728.06;;;29.92;44.37
77325;BME280;66387;53.440;10.390;2023-08-24T13:45:21;100726.25;;;30.11;44.15
77325;BME280;66387;53.440;10.390;2023-08-24T13:47:46;100729.19;;;30.18;43.00
77325;BME280;66387;53.440;10.390;2023-08-24T13:50:11;100732.31;;;29.94;44.31
77325;BME280;66387;53.440;10.390;2023-08-24T13:52:37;100728.56;;;29.47;43.58
77325;BME280;66387;53.440;10.390;2023-08-24T13:55:03;100728.44;;;29.39;44.93
77325;BME280;66387;53.440;10.390;2023-08-24T13:57:29;100725.16;;;28.65;45.33
77325;BME280;66387;53.440;10.390;2023-08-24T13:59:55;100713.06;;;28.20;46.08
77325;BME280;66387;53.440;10.390;2023-08-24T14:02:20;100718.03;;;28.45;46.17
77325;BME280;66387;53.440;10.390;2023-08-24T14:04:45;100711.25;;;28.41;48.17
77325;BME280;66387;53.440;10.390;2023-08-24T14:07:11;100708.94;;;28.57;48.01
77325;BME280;66387;53.440;10.390;2023-08-24T14:09:36;100700.38;;;28.33;45.64
77325;BME280;66387;53.440;10.390;2023-08-24T14:12:02;100700.06;;;28.57;45.57
77325;BME280;66387;53.440;10.390;2023-08-24T14:14:27;100703.53;;;28.06;47.73
77325;BME280;66387;53.440;10.390;2023-08-24T14:16:56;100699.31;;;28.24;48.37
77325;BME280;66387;53.440;10.390;2023-08-24T14:19:22;100698.72;;;28.42;47.25
77325;BME280;66387;53.440;10.390;2023-08-24T14:21:47;100693.88;;;28.56;50.08
77325;BME280;66387;53.440;10.390;2023-08-24T14:24:12;100691.16;;;28.67;48.26
77325;BME280;66387;53.440;10.390;2023-08-24T14:26:38;100689.81;;;28.83;47.38
77325;BME280;66387;53.440;10.390;2023-08-24T14:29:04;100687.88;;;28.85;47.72
77325;BME280;66387;53.440;10.390;2023-08-24T14:31:30;100694.09;;;28.95;48.09
77325;BME280;66387;53.440;10.390;2023-08-24T14:33:56;100686.97;;;28.74;47.67
77325;BME280;66387;53.440;10.390;2023-08-24T14:36:22;100675.59;;;28.52;48.36
77325;BME280;66387;53.440;10.390;2023-08-24T14:38:48;100682.75;;;28.51;49.19
77325;BME280;66387;53.440;10.390;2023-08-24T14:41:15;100689.44;;;28.36;49.27
77325;BME280;66387;53.440;10.390;2023-08-24T14:43:40;100682.09;;;28.08;48.92
77325;BME280;66387;53.440;10.390;2023-08-24T14:46:06;100676.09;;;27.84;49.00
77325;BME280;66387;53.440;10.390;2023-08-24T14:48:32;100674.94;;;27.76;51.28
77325;BME280;66387;53.440;10.390;2023-08-24T14:50:58;100668.03;;;27.74;52.26
77325;BME280;66387;53.440;10.390;2023-08-24T14:53:24;100665.16;;;27.66;51.03
77325;BME280;66387;53.440;10.390;2023-08-24T14:55:49;100670.31;;;27.78;50.73
77325;BME280;66387;53.440;10.390;2023-08-24T14:58:15;100666.00;;;27.66;50.55
77325;BME280;66387;53.440;10.390;2023-08-24T15:00:40;100662.91;;;27.61;51.23
77325;BME280;66387;53.440;10.390;2023-08-24T15:03:05;100658.25;;;27.63;52.98
77325;BME280;66387;53.440;10.390;2023-08-24T15:05:37;100653.19;;;27.60;52.27
77325;BME280;66387;53.440;10.390;2023-08-24T15:08:02;100657.84;;;27.47;50.58
77325;BME280;66387;53.440;10.390;2023-08-24T15:10:28;100649.19;;;27.55;51.55
77325;BME280;66387;53.440;10.390;2023-08-24T15:12:53;100649.09;;;27.56;51.19
77325;BME280;66387;53.440;10.390;2023-08-24T15:15:18;100653.47;;;27.57;52.11
77325;BME280;66387;53.440;10.390;2023-08-24T15:17:44;100655.56;;;27.32;51.83
77325;BME280;66387;53.440;10.390;2023-08-24T15:20:12;100654.38;;;27.24;52.20
77325;BME280;66387;53.440;10.390;2023-08-24T15:22:38;100649.28;;;27.21;52.77
77325;BME280;66387;53.440;10.390;2023-08-24T15:25:04;100658.66;;;27.05;52.59
77325;BME280;66387;53.440;10.390;2023-08-24T15:27:30;100642.19;;;27.00;53.08
77325;BME280;66387;53.440;10.390;2023-08-24T15:29:55;100646.09;;;26.96;53.16
77325;BME280;66387;53.440;10.390;2023-08-24T15:32:20;100645.25;;;26.84;53.68
77325;BME280;66387;53.440;10.390;2023-08-24T15:34:46;100645.25;;;26.84;54.03
77325;BME280;66387;53.440;10.390;2023-08-24T15:37:12;100642.44;;;26.86;54.46
77325;BME280;66387;53.440;10.390;2023-08-24T15:39:38;100643.63;;;26.70;54.74
77325;BME280;66387;53.440;10.390;2023-08-24T15:42:07;100636.16;;;26.75;54.74
77325;BME280;66387;53.440;10.390;2023-08-24T15:44:33;100633.72;;;26.72;54.74
77325;BME280;66387;53.440;10.390;2023-08-24T15:46:59;100628.41;;;26.72;55.24
77325;BME280;66387;53.440;10.390;2023-08-24T15:49:24;100630.81;;;26.75;56.00
77325;BME280;66387;53.440;10.390;2023-08-24T15:51:51;100621.88;;;26.76;56.42
77325;BME280;66387;53.440;10.390;2023-08-24T15:54:17;100618.72;;;26.71;55.79
77325;BME280;66387;53.440;10.390;2023-08-24T15:56:42;100608.66;;;26.64;56.75
77325;BME280;66387;53.440;10.390;2023-08-24T15:59:10;100610.47;;;26.63;56.14
77325;BME280;66387;53.440;10.390;2023-08-24T16:01:36;100605.41;;;26.60;56.38
77325;BME280;66387;53.440;10.390;2023-08-24T16:04:01;100607.97;;;26.62;56.13
77325;BME280;66387;53.440;10.390;2023-08-24T16:06:27;100609.28;;;26.56;56.56
77325;BME280;66387;53.440;10.390;2023-08-24T16:08:53;100614.00;;;26.53;56.66
77325;BME280;66387;53.440;10.390;2023-08-24T16:11:20;100604.94;;;26.44;56.80
77325;BME280;66387;53.440;10.390;2023-08-24T16:13:46;100601.53;;;26.42;57.16
77325;BME280;66387;53.440;10.390;2023-08-24T16:16:11;100603.84;;;26.36;57.87
77325;BME280;66387;53.440;10.390;2023-08-24T16:18:37;100611.94;;;26.34;57.11
77325;BME280;66387;53.440;10.390;2023-08-24T16:21:02;100604.94;;;26.22;56.67
77325;BME280;66387;53.440;10.390;2023-08-24T16:23:28;100599.84;;;26.19;57.23
77325;BME280;66387;53.440;10.390;2023-08-24T16:25:54;100603.09;;;26.11;58.35
77325;BME280;66387;53.440;10.390;2023-08-24T16:28:19;100597.03;;;26.09;58.00
77325;BME280;66387;53.440;10.390;2023-08-24T16:30:48;100594.00;;;26.03;59.13
77325;BME280;66387;53.440;10.390;2023-08-24T16:33:14;100590.63;;;26.01;58.58
77325;BME280;66387;53.440;10.390;2023-08-24T16:35:40;100591.06;;;25.95;59.85
77325;BME280;66387;53.440;10.390;2023-08-24T16:38:05;100590.63;;;26.01;58.87
77325;BME280;66387;53.440;10.390;2023-08-24T16:40:34;100594.47;;;25.97;59.42
77325;BME280;66387;53.440;10.390;2023-08-24T16:42:59;100586.34;;;25.98;59.02
77325;BME280;66387;53.440;10.390;2023-08-24T16:45:25;100582.13;;;25.96;58.94
77325;BME280;66387;53.440;10.390;2023-08-24T16:47:51;100578.53;;;25.97;59.22
77325;BME280;66387;53.440;10.390;2023-08-24T16:50:16;100583.84;;;25.97;59.39
77325;BME280;66387;53.440;10.390;2023-08-24T16:52:42;100577.66;;;25.96;59.94
77325;BME280;66387;53.440;10.390;2023-08-24T16:55:07;100576.31;;;25.91;60.60
77325;BME280;66387;53.440;10.390;2023-08-24T16:57:33;100575.94;;;25.84;59.77
77325;BME280;66387;53.440;10.390;2023-08-24T16:59:58;100563.13;;;25.78;60.54
77325;BME280;66387;53.440;10.390;2023-08-24T17:02:24;100558.75;;;25.66;60.96
77325;BME280;66387;53.440;10.390;2023-08-24T17:04:49;100562.97;;;25.57;61.54
77325;BME280;66387;53.440;10.390;2023-08-24T17:07:14;100552.69;;;25.53;61.81
77325;BME280;66387;53.440;10.390;2023-08-24T17:09:39;100551.53;;;25.44;61.64
77325;BME280;66387;53.440;10.390;2023-08-24T17:12:05;100549.78;;;25.32;61.92
77325;BME280;66387;53.440;10.390;2023-08-24T17:14:30;100539.16;;;25.32;62.26
77325;BME280;66387;53.440;10.390;2023-08-24T17:16:55;100541.56;;;25.24;63.28
77325;BME280;66387;53.440;10.390;2023-08-24T17:19:21;100530.88;;;25.13;64.04
77325;BME280;66387;53.440;10.390;2023-08-24T17:21:46;100540.00;;;24.98;64.89
77325;BME280;66387;53.440;10.390;2023-08-24T17:24:11;100531.97;;;24.86;66.02
77325;BME280;66387;53.440;10.390;2023-08-24T17:26:37;100538.66;;;24.79;66.64
77325;BME280;66387;53.440;10.390;2023-08-24T17:29:03;100526.88;;;24.71;67.37
77325;BME280;66387;53.440;10.390;2023-08-24T17:31:28;100528.81;;;24.69;67.25
77325;BME280;66387;53.440;10.390;2023-08-24T17:33:53;100519.28;;;24.66;66.69
77325;BME280;66387;53.440;10.390;2023-08-24T17:36:19;100514.16;;;24.63;67.24
77325;BME280;66387;53.440;10.390;2023-08-24T17:38:44;100512.94;;;24.56;67.39
77325;BME280;66387;53.440;10.390;2023-08-24T17:41:10;100513.91;;;24.55;68.63
77325;BME280;66387;53.440;10.390;2023-08-24T17:43:35;100502.75;;;24.50;68.32
77325;BME280;66387;53.440;10.390;2023-08-24T17:46:05;100499.34;;;24.48;67.92
77325;BME280;66387;53.440;10.390;2023-08-24T17:48:31;100492.59;;;24.44;68.32
77325;BME280;66387;53.440;10.390;2023-08-24T17:50:58;100491.56;;;24.34;68.72
77325;BME280;66387;53.440;10.390;2023-08-24T17:53:24;100483.09;;;24.29;69.16
77325;BME280;66387;53.440;10.390;2023-08-24T17:55:56;100485.00;;;24.27;68.90
77325;BME280;66387;53.440;10.390;2023-08-24T17:58:22;100487.88;;;24.24;68.96
77325;BME280;66387;53.440;10.390;2023-08-24T18:00:48;100481.94;;;24.20;69.08
77325;BME280;66387;53.440;10.390;2023-08-24T18:03:13;100480.13;;;24.21;69.43
77325;BME280;66387;53.440;10.390;2023-08-24T18:05:39;100467.59;;;24.23;69.14
77325;BME280;66387;53.440;10.390;2023-08-24T18:08:05;100458.19;;;24.19;69.70
77325;BME280;66387;53.440;10.390;2023-08-24T18:10:30;100465.06;;;24.09;70.12
77325;BME280;66387;53.440;10.390;2023-08-24T18:12:55;100456.59;;;24.04;70.56
77325;BME280;66387;53.440;10.390;2023-08-24T18:15:21;100465.94;;;23.97;70.74
77325;BME280;66387;53.440;10.390;2023-08-24T18:17:46;100460.66;;;23.97;70.88
77325;BME280;66387;53.440;10.390;2023-08-24T18:20:12;100471.25;;;23.97;70.94
77325;BME280;66387;53.440;10.390;2023-08-24T18:22:38;100471.25;;;23.97;71.09
77325;BME280;66387;53.440;10.390;2023-08-24T18:25:03;100471.88;;;23.87;71.39
77325;BME280;66387;53.440;10.390;2023-08-24T18:27:28;100467.44;;;23.88;71.81
77325;BME280;66387;53.440;10.390;2023-08-24T18:29:54;100471.69;;;23.78;72.26
77325;BME280;66387;53.440;10.390;2023-08-24T18:32:19;100469.13;;;23.76;72.34
77325;BME280;66387;53.440;10.390;2023-08-24T18:37:10;100467.66;;;23.72;72.31
77325;BME280;66387;53.440;10.390;2023-08-24T18:39:36;100466.06;;;23.70;72.54
77325;BME280;66387;53.440;10.390;2023-08-24T18:42:04;100470.75;;;23.66;72.71
77325;BME280;66387;53.440;10.390;2023-08-24T18:44:29;100475.63;;;23.60;72.87
77325;BME280;66387;53.440;10.390;2023-08-24T18:46:54;100460.75;;;23.57;72.91
77325;BME280;66387;53.440;10.390;2023-08-24T18:49:20;100455.16;;;23.62;72.50
77325;BME280;66387;53.440;10.390;2023-08-24T18:51:46;100458.75;;;23.61;72.84
77325;BME280;66387;53.440;10.390;2023-08-24T18:54:11;100459.81;;;23.58;72.97
77325;BME280;66387;53.440;10.390;2023-08-24T18:56:37;100465.13;;;23.58;72.99
77325;BME280;66387;53.440;10.390;2023-08-24T18:59:02;100454.63;;;23.57;72.85
77325;BME280;66387;53.440;10.390;2023-08-24T19:01:27;100468.06;;;23.54;72.86
77325;BME280;66387;53.440;10.390;2023-08-24T19:03:52;100459.09;;;23.56;72.97
77325;BME280;66387;53.440;10.390;2023-08-24T19:06:18;100457.38;;;23.55;72.62
77325;BME280;66387;53.440;10.390;2023-08-24T19:08:43;100458.31;;;23.54;72.92
77325;BME280;66387;53.440;10.390;2023-08-24T19:11:08;100454.81;;;23.54;72.77
77325;BME280;66387;53.440;10.390;2023-08-24T19:13:34;100452.28;;;23.52;73.18
77325;BME280;66387;53.440;10.390;2023-08-24T19:16:00;100453.47;;;23.48;73.68
77325;BME280;66387;53.440;10.390;2023-08-24T19:18:26;100447.44;;;23.46;73.60
77325;BME280;66387;53.440;10.390;2023-08-24T19:20:52;100444.88;;;23.44;73.26
77325;BME280;66387;53.440;10.390;2023-08-24T19:23:17;100442.31;;;23.43;73.79
77325;BME280;66387;53.440;10.390;2023-08-24T19:25:45;100428.84;;;23.33;74.54
77325;BME280;66387;53.440;10.390;2023-08-24T19:28:10;100426.28;;;23.32;74.29
77325;BME280;66387;53.440;10.390;2023-08-24T19:30:37;100417.81;;;23.27;74.65
77325;BME280;66387;53.440;10.390;2023-08-24T19:33:03;100417.06;;;23.25;74.85
77325;BME280;66387;53.440;10.390;2023-08-24T19:35:29;100417.78;;;23.14;75.61
77325;BME280;66387;53.440;10.390;2023-08-24T19:37:54;100420.13;;;23.19;75.05
77325;BME280;66387;53.440;10.390;2023-08-24T19:40:22;100409.13;;;23.25;74.93
77325;BME280;66387;53.440;10.390;2023-08-24T19:42:48;100416.22;;;23.24;75.20
77325;BME280;66387;53.440;10.390;2023-08-24T19:45:13;100409.63;;;23.17;75.39
77325;BME280;66387;53.440;10.390;2023-08-24T19:47:38;100403.69;;;23.14;75.39
77325;BME280;66387;53.440;10.390;2023-08-24T19:50:04;100388.34;;;23.06;76.43
77325;BME280;66387;53.440;10.390;2023-08-24T19:52:29;100396.19;;;23.08;75.69
77325;BME280;66387;53.440;10.390;2023-08-24T19:54:54;100390.69;;;23.11;74.80
77325;BME280;66387;53.440;10.390;2023-08-24T19:57:20;100387.94;;;23.12;74.68
77325;BME280;66387;53.440;10.390;2023-08-24T19:59:45;100386.03;;;23.14;74.43
77325;BME280;66387;53.440;10.390;2023-08-24T20:02:10;100388.97;;;23.10;75.45
77325;BME280;66387;53.440;10.390;2023-08-24T20:04:35;100394.09;;;23.13;75.92
77325;BME280;66387;53.440;10.390;2023-08-24T20:07:01;100397.25;;;23.05;75.65
77325;BME280;66387;53.440;10.390;2023-08-24T20:09:29;100410.16;;;23.10;77.27
77325;BME280;66387;53.440;10.390;2023-08-24T20:11:54;100405.84;;;23.09;78.11
77325;BME280;66387;53.440;10.390;2023-08-24T20:14:20;100412.06;;;23.08;77.40
77325;BME280;66387;53.440;10.390;2023-08-24T20:16:45;100405.50;;;23.01;77.03
77325;BME280;66387;53.440;10.390;2023-08-24T20:19:10;100418.19;;;22.83;76.48
77325;BME280;66387;53.440;10.390;2023-08-24T20:21:36;100421.53;;;22.72;77.93
77325;BME280;66387;53.440;10.390;2023-08-24T20:24:02;100421.44;;;22.47;81.28
77325;BME280;66387;53.440;10.390;2023-08-24T20:26:27;100418.41;;;22.12;84.70
77325;BME280;66387;53.440;10.390;2023-08-24T20:28:53;100405.22;;;21.98;88.23
77325;BME280;66387;53.440;10.390;2023-08-24T20:31:18;100410.97;;;21.76;92.23
77325;BME280;66387;53.440;10.390;2023-08-24T20:33:43;100415.59;;;21.44;95.07
77325;BME280;66387;53.440;10.390;2023-08-24T20:36:08;100400.97;;;21.25;97.91
77325;BME280;66387;53.440;10.390;2023-08-24T20:38:34;100390.97;;;21.16;99.44
77325;BME280;66387;53.440;10.390;2023-08-24T20:41:00;100392.03;;;20.97;100.00
77325;BME280;66387;53.440;10.390;2023-08-24T20:43:26;100391.44;;;20.92;100.00
77325;BME280;66387;53.440;10.390;2023-08-24T20:45:51;100385.75;;;20.84;100.00
77325;BME280;66387;53.440;10.390;2023-08-24T20:48:17;100373.34;;;20.86;100.00
77325;BME280;66387;53.440;10.390;2023-08-24T20:50:42;100359.97;;;20.89;100.00
77325;BME280;66387;53.440;10.390;2023-08-24T20:53:08;100356.75;;;20.98;100.00
77325;BME280;66387;53.440;10.390;2023-08-24T20:55:33;100348.19;;;20.95;100.00
77325;BME280;66387;53.440;10.390;2023-08-24T20:57:59;100358.84;;;20.93;100.00
77325;BME280;66387;53.440;10.390;2023-08-24T21:00:24;100356.41;;;20.90;100.00
77325;BME280;66387;53.440;10.390;2023-08-24T21:02:49;100348.28;;;20.93;100.00
77325;BME280;66387;53.440;10.390;2023-08-24T21:05:15;100344.50;;;20.83;100.00
77325;BME280;66387;53.440;10.390;2023-08-24T21:07:40;100335.47;;;20.87;100.00
77325;BME280;66387;53.440;10.390;2023-08-24T21:10:06;100330.00;;;20.90;100.00
77325;BME280;66387;53.440;10.390;2023-08-24T21:12:31;100319.16;;;20.95;100.00
77325;BME280;66387;53.440;10.390;2023-08-24T21:14:56;100326.59;;;21.02;100.00
77325;BME280;66387;53.440;10.390;2023-08-24T21:17:22;100320.00;;;20.95;100.00
77325;BME280;66387;53.440;10.390;2023-08-24T21:19:48;100312.00;;;20.97;100.00
77325;BME280;66387;53.440;10.390;2023-08-24T21:22:14;100310.13;;;20.99;100.00
77325;BME280;66387;53.440;10.390;2023-08-24T21:24:39;100309.25;;;20.98;100.00
77325;BME280;66387;53.440;10.390;2023-08-24T21:27:04;100307.41;;;21.00;100.00
77325;BME280;66387;53.440;10.390;2023-08-24T21:29:29;100288.81;;;21.02;100.00
77325;BME280;66387;53.440;10.390;2023-08-24T21:31:55;100295.25;;;20.98;100.00
77325;BME280;66387;53.440;10.390;2023-08-24T21:34:21;100293.81;;;20.92;100.00
77325;BME280;66387;53.440;10.390;2023-08-24T21:36:47;100286.09;;;20.89;100.00
77325;BME280;66387;53.440;10.390;2023-08-24T21:39:12;100291.38;;;20.89;100.00
77325;BME280;66387;53.440;10.390;2023-08-24T21:41:37;100282.31;;;20.79;100.00
77325;BME280;66387;53.440;10.390;2023-08-24T21:44:03;100286.25;;;20.72;100.00
77325;BME280;66387;53.440;10.390;2023-08-24T21:46:29;100286.06;;;20.75;100.00
77325;BME280;66387;53.440;10.390;2023-08-24T21:48:55;100284.28;;;20.76;100.00
77325;BME280;66387;53.440;10.390;2023-08-24T21:51:20;100275.91;;;20.69;100.00
77325;BME280;66387;53.440;10.390;2023-08-24T21:53:45;100275.91;;;20.69;100.00
77325;BME280;66387;53.440;10.390;2023-08-24T21:56:11;100280.78;;;20.75;100.00
77325;BME280;66387;53.440;10.390;2023-08-24T21:58:36;100274.59;;;20.76;100.00
77325;BME280;66387;53.440;10.390;2023-08-24T22:01:03;100265.06;;;20.74;100.00
77325;BME280;66387;53.440;10.390;2023-08-24T22:03:29;100264.97;;;20.75;100.00
77325;BME280;66387;53.440;10.390;2023-08-24T22:05:55;100263.66;;;20.68;100.00
77325;BME280;66387;53.440;10.390;2023-08-24T22:08:20;100265.22;;;20.57;100.00
77325;BME280;66387;53.440;10.390;2023-08-24T22:10:46;100257.03;;;20.61;100.00
77325;BME280;66387;53.440;10.390;2023-08-24T22:13:11;100251.38;;;20.53;100.00
77325;BME280;66387;53.440;10.390;2023-08-24T22:15:36;100246.09;;;20.53;100.00
77325;BME280;66387;53.440;10.390;2023-08-24T22:18:02;100238.38;;;20.50;100.00
77325;BME280;66387;53.440;10.390;2023-08-24T22:20:27;100245.31;;;20.51;100.00
77325;BME280;66387;53.440;10.390;2023-08-24T22:22:52;100250.59;;;20.51;100.00
77325;BME280;66387;53.440;10.390;2023-08-24T22:25:18;100243.66;;;20.50;100.00
77325;BME280;66387;53.440;10.390;2023-08-24T22:27:44;100239.13;;;20.52;100.00
77325;BME280;66387;53.440;10.390;2023-08-24T22:30:10;100234.88;;;20.49;100.00
77325;BME280;66387;53.440;10.390;2023-08-24T22:32:36;100230.53;;;20.48;100.00
77325;BME280;66387;53.440;10.390;2023-08-24T22:35:01;100229.88;;;20.45;100.00
77325;BME280;66387;53.440;10.390;2023-08-24T22:37:27;100220.56;;;20.39;100.00
77325;BME280;66387;53.440;10.390;2023-08-24T22:39:53;100219.13;;;20.34;100.00
77325;BME280;66387;53.440;10.390;2023-08-24T22:42:19;100222.44;;;20.37;100.00
77325;BME280;66387;53.440;10.390;2023-08-24T22:44:45;100215.63;;;20.33;100.00
77325;BME280;66387;53.440;10.390;2023-08-24T22:47:10;100220.91;;;20.33;100.00
77325;BME280;66387;53.440;10.390;2023-08-24T22:49:36;100230.91;;;20.28;100.00
77325;BME280;66387;53.440;10.390;2023-08-24T22:52:02;100233.75;;;20.24;100.00
77325;BME280;66387;53.440;10.390;2023-08-24T22:54:27;100224.34;;;20.20;100.00
77325;BME280;66387;53.440;10.390;2023-08-24T22:56:52;100230.03;;;20.12;99.97
77325;BME280;66387;53.440;10.390;2023-08-24T22:59:18;100232.59;;;20.14;100.00
77325;BME280;66387;53.440;10.390;2023-08-24T23:01:43;100232.34;;;20.18;100.00
77325;BME280;66387;53.440;10.390;2023-08-24T23:04:09;100221.69;;;20.20;99.42
77325;BME280;66387;53.440;10.390;2023-08-24T23:06:45;100214.66;;;20.20;99.61
77325;BME280;66387;53.440;10.390;2023-08-24T23:09:13;100213.13;;;20.16;99.65
77325;BME280;66387;53.440;10.390;2023-08-24T23:11:40;100211.59;;;20.12;99.06
77325;BME280;66387;53.440;10.390;2023-08-24T23:14:05;100206.34;;;20.12;99.42
77325;BME280;66387;53.440;10.390;2023-08-24T23:16:33;100202.94;;;20.10;99.54
77325;BME280;66387;53.440;10.390;2023-08-24T23:18:58;100196.81;;;20.10;99.85
77325;BME280;66387;53.440;10.390;2023-08-24T23:21:23;100203.97;;;20.07;99.16
77325;BME280;66387;53.440;10.390;2023-08-24T23:23:49;100199.06;;;20.01;99.11
77325;BME280;66387;53.440;10.390;2023-08-24T23:26:14;100199.97;;;20.00;99.59
77325;BME280;66387;53.440;10.390;2023-08-24T23:28:39;100197.34;;;20.00;99.68
77325;BME280;66387;53.440;10.390;2023-08-24T23:31:04;100207.03;;;20.00;99.88
77325;BME280;66387;53.440;10.390;2023-08-24T23:33:30;100200.94;;;19.99;99.65
77325;BME280;66387;53.440;10.390;2023-08-24T23:35:55;100204.69;;;19.95;100.00
77325;BME280;66387;53.440;10.390;2023-08-24T23:38:20;100202.13;;;19.94;100.00
77325;BME280;66387;53.440;10.390;2023-08-24T23:40:46;100198.56;;;19.95;100.00
77325;BME280;66387;53.440;10.390;2023-08-24T23:43:11;100199.25;;;19.98;100.00
77325;BME280;66387;53.440;10.390;2023-08-24T23:45:36;100204.34;;;19.86;100.00
77325;BME280;66387;53.440;10.390;2023-08-24T23:48:02;100203.91;;;19.93;100.00
77325;BME280;66387;53.440;10.390;2023-08-24T23:50:27;100196.69;;;19.97;100.00
77325;BME280;66387;53.440;10.390;2023-08-24T23:52:53;100186.66;;;20.03;99.69
77325;BME280;66387;53.440;10.390;2023-08-24T23:55:18;100187.22;;;20.08;100.00
77325;BME280;66387;53.440;10.390;2023-08-24T23:57:44;100184.22;;;20.15;99.51
